Terminal Aerodrome Forecast
Issued by NWS Greer, SC

Home | Current Version | Previous Version | Text Only | Print | Product List | Glossary On
Versions: 1 2 3 4 5 6 7 8 9 10 11 12 13 14
000
FTUS42 KGSP 231124
TAFGSP
TAF
KGSP 231124Z 2312/2412 VRB02KT P6SM SCT250
     FM232000 21006KT P6SM SCT060 SCT250 PROB30 2321/2401 4SM -TSRA
      BKN060CB
     FM240200 VRB02KT P6SM SCT090 SCT250=

USA.gov is the U.S. government's official web portal to all federal, state and local government web resources and services.